Time,TemperatureF,DewpointF,PressureIn,WindDirection,WindDirectionDegrees,WindSpeedMPH,WindSpeedGustMPH,Humidity,HourlyPrecipIn,Conditions,Clouds,dailyrainin,SoftwareType,DateUTC
2013-07-10 00:02:00,62.9,53.7,30.28,WNW,291,0.0,32.0,72,0.00,,,0.00,Wunderground v.1.15,2013-07-10 06:02:00,
2013-07-10 00:08:00,62.8,54.0,30.28,WNW,290,0.0,32.0,73,0.00,,,0.00,Wunderground v.1.15,2013-07-10 06:08:00,
2013-07-10 00:13:00,62.6,53.8,30.28,WNW,291,0.0,32.0,73,0.00,,,0.00,Wunderground v.1.15,2013-07-10 06:13:00,
2013-07-10 00:19:00,62.5,53.7,30.28,WNW,291,0.0,32.0,73,0.00,,,0.00,Wunderground v.1.15,2013-07-10 06:19:00,
2013-07-10 00:25:00,62.5,53.7,30.28,WNW,291,0.0,32.0,73,0.00,,,0.00,Wunderground v.1.15,2013-07-10 06:25:00,
2013-07-10 00:32:00,62.5,53.7,30.28,WNW,291,0.0,32.0,73,0.00,,,0.00,Wunderground v.1.15,2013-07-10 06:32:00,
2013-07-10 00:38:00,62.5,53.7,30.28,WNW,291,0.0,32.0,73,0.00,,,0.00,Wunderground v.1.15,2013-07-10 06:38:00,
2013-07-10 00:43:00,62.5,54.1,30.28,WNW,291,0.0,32.0,74,0.00,,,0.00,Wunderground v.1.15,2013-07-10 06:43:00,
2013-07-10 00:49:00,62.2,53.8,30.29,WNW,290,1.0,32.0,74,0.00,,,0.00,Wunderground v.1.15,2013-07-10 06:49:00,
2013-07-10 00:55:00,61.5,53.9,30.29,WNW,284,1.0,32.0,76,0.00,,,0.00,Wunderground v.1.15,2013-07-10 06:55:00,
2013-07-10 01:01:00,62.0,53.6,30.29,WNW,284,1.0,32.0,74,0.00,,,0.00,Wunderground v.1.15,2013-07-10 07:01:00,
2013-07-10 01:07:00,62.3,53.9,30.28,WNW,283,0.0,32.0,74,0.00,,,0.00,Wunderground v.1.15,2013-07-10 07:07:00,
2013-07-10 01:14:00,62.3,53.9,30.28,WNW,284,0.0,32.0,74,0.00,,,0.00,Wunderground v.1.15,2013-07-10 07:14:00,
2013-07-10 01:19:00,62.2,53.8,30.28,WNW,284,0.0,32.0,74,0.00,,,0.00,Wunderground v.1.15,2013-07-10 07:19:00,
2013-07-10 01:25:00,62.0,53.6,30.28,WNW,284,0.0,32.0,74,0.00,,,0.00,Wunderground v.1.15,2013-07-10 07:25:00,
2013-07-10 01:31:00,61.6,53.6,30.28,WNW,283,0.0,32.0,75,0.00,,,0.00,Wunderground v.1.15,2013-07-10 07:31:00,
2013-07-10 01:38:00,61.2,53.2,30.28,WNW,283,0.0,32.0,75,0.00,,,0.00,Wunderground v.1.15,2013-07-10 07:38:00,
2013-07-10 01:44:00,60.9,53.3,30.28,WNW,284,0.0,32.0,76,0.00,,,0.00,Wunderground v.1.15,2013-07-10 07:44:00,
2013-07-10 01:49:00,60.6,53.3,30.28,WNW,284,0.0,32.0,77,0.00,,,0.00,Wunderground v.1.15,2013-07-10 07:49:00,
2013-07-10 01:55:00,60.8,53.5,30.28,WNW,284,1.0,32.0,77,0.00,,,0.00,Wunderground v.1.15,2013-07-10 07:55:00,
2013-07-10 02:01:00,61.0,53.7,30.29,WNW,283,1.0,32.0,77,0.00,,,0.00,Wunderground v.1.15,2013-07-10 08:01:00,
2013-07-10 02:07:00,60.9,53.6,30.28,WNW,284,0.0,32.0,77,0.00,,,0.00,Wunderground v.1.15,2013-07-10 08:07:00,
2013-07-10 02:13:00,61.2,53.6,30.28,WNW,284,0.0,32.0,76,0.00,,,0.00,Wunderground v.1.15,2013-07-10 08:13:00,
2013-07-10 02:20:00,61.2,53.6,30.28,WNW,284,0.0,32.0,76,0.00,,,0.00,Wunderground v.1.15,2013-07-10 08:20:00,
2013-07-10 02:25:00,61.4,53.8,30.28,WNW,284,0.0,32.0,76,0.00,,,0.00,Wunderground v.1.15,2013-07-10 08:25:00,
2013-07-10 02:31:00,61.4,53.8,30.28,WNW,284,0.0,32.0,76,0.00,,,0.00,Wunderground v.1.15,2013-07-10 08:31:00,
2013-07-10 02:37:00,61.7,54.1,30.27,WNW,284,0.0,32.0,76,0.00,,,0.00,Wunderground v.1.15,2013-07-10 08:37:00,
2013-07-10 02:43:00,62.0,54.0,30.27,WNW,284,0.0,32.0,75,0.00,,,0.00,Wunderground v.1.15,2013-07-10 08:43:00,
2013-07-10 02:50:00,61.5,53.9,30.27,WNW,284,0.0,32.0,76,0.00,,,0.00,Wunderground v.1.15,2013-07-10 08:50:00,
2013-07-10 02:55:00,61.1,53.8,30.27,WNW,283,0.0,32.0,77,0.00,,,0.00,Wunderground v.1.15,2013-07-10 08:55:00,
2013-07-10 03:01:00,60.8,53.9,30.27,WNW,284,0.0,32.0,78,0.00,,,0.00,Wunderground v.1.15,2013-07-10 09:01:00,
2013-07-10 03:07:00,60.8,53.9,30.27,WNW,284,0.0,32.0,78,0.00,,,0.00,Wunderground v.1.15,2013-07-10 09:07:00,
2013-07-10 03:14:00,61.1,54.2,30.27,WNW,283,0.0,32.0,78,0.00,,,0.00,Wunderground v.1.15,2013-07-10 09:14:00,
2013-07-10 03:20:00,60.8,54.2,30.27,WNW,283,0.0,32.0,79,0.00,,,0.00,Wunderground v.1.15,2013-07-10 09:20:00,
2013-07-10 03:25:00,60.4,54.2,30.27,WNW,283,0.0,32.0,80,0.00,,,0.00,Wunderground v.1.15,2013-07-10 09:25:00,
2013-07-10 03:31:00,60.3,54.1,30.27,WNW,283,0.0,32.0,80,0.00,,,0.00,Wunderground v.1.15,2013-07-10 09:31:00,
2013-07-10 03:37:00,60.1,53.9,30.27,WNW,283,0.0,32.0,80,0.00,,,0.00,Wunderground v.1.15,2013-07-10 09:37:00,
2013-07-10 03:43:00,59.9,54.1,30.26,WNW,284,0.0,32.0,81,0.00,,,0.00,Wunderground v.1.15,2013-07-10 09:43:00,
2013-07-10 03:49:00,59.6,53.8,30.26,WNW,284,0.0,32.0,81,0.00,,,0.00,Wunderground v.1.15,2013-07-10 09:49:00,
2013-07-10 03:56:00,59.3,53.8,30.26,WNW,283,0.0,32.0,82,0.00,,,0.00,Wunderground v.1.15,2013-07-10 09:56:00,
2013-07-10 04:01:00,59.5,54.0,30.26,WNW,284,0.0,32.0,82,0.00,,,0.00,Wunderground v.1.15,2013-07-10 10:01:00,
2013-07-10 04:07:00,59.2,53.4,30.26,WNW,283,0.0,32.0,81,0.00,,,0.00,Wunderground v.1.15,2013-07-10 10:07:00,
2013-07-10 04:13:00,58.4,52.9,30.26,WNW,283,0.0,32.0,82,0.00,,,0.00,Wunderground v.1.15,2013-07-10 10:13:00,
2013-07-10 04:19:00,58.2,53.1,30.26,WNW,283,0.0,32.0,83,0.00,,,0.00,Wunderground v.1.15,2013-07-10 10:19:00,
2013-07-10 04:26:00,58.1,53.3,30.26,WNW,283,0.0,32.0,84,0.00,,,0.00,Wunderground v.1.15,2013-07-10 10:26:00,
2013-07-10 04:32:00,58.0,53.2,30.25,WNW,284,0.0,32.0,84,0.00,,,0.00,Wunderground v.1.15,2013-07-10 10:32:00,
2013-07-10 04:37:00,57.8,53.0,30.25,WNW,284,0.0,32.0,84,0.00,,,0.00,Wunderground v.1.15,2013-07-10 10:37:00,
2013-07-10 04:43:00,57.9,53.4,30.25,WNW,283,0.0,32.0,85,0.00,,,0.00,Wunderground v.1.15,2013-07-10 10:43:00,
2013-07-10 04:49:00,58.7,54.2,30.25,WNW,283,1.0,32.0,85,0.00,,,0.00,Wunderground v.1.15,2013-07-10 10:49:00,
2013-07-10 04:55:00,59.5,54.3,30.25,WNW,283,0.0,32.0,83,0.00,,,0.00,Wunderground v.1.15,2013-07-10 10:55:00,
2013-07-10 05:02:00,59.8,54.3,30.25,WNW,283,0.0,32.0,82,0.00,,,0.00,Wunderground v.1.15,2013-07-10 11:02:00,
2013-07-10 05:07:00,59.6,54.1,30.25,WNW,283,0.0,32.0,82,0.00,,,0.00,Wunderground v.1.15,2013-07-10 11:07:00,
2013-07-10 05:13:00,59.4,53.9,30.25,WNW,284,0.0,32.0,82,0.00,,,0.00,Wunderground v.1.15,2013-07-10 11:13:00,
2013-07-10 05:19:00,59.3,54.5,30.25,SSW,204,1.0,32.0,84,0.00,,,0.00,Wunderground v.1.15,2013-07-10 11:19:00,
2013-07-10 05:25:00,60.1,54.6,30.25,South,180,3.0,32.0,82,0.00,,,0.00,Wunderground v.1.15,2013-07-10 11:25:00,
2013-07-10 05:31:00,60.5,54.6,30.25,South,183,5.0,32.0,81,0.00,,,0.00,Wunderground v.1.15,2013-07-10 11:31:00,
2013-07-10 05:38:00,60.9,55.0,30.25,South,181,5.0,32.0,81,0.00,,,0.00,Wunderground v.1.15,2013-07-10 11:38:00,
2013-07-10 05:43:00,61.2,55.0,30.25,South,180,4.0,32.0,80,0.00,,,0.00,Wunderground v.1.15,2013-07-10 11:43:00,
2013-07-10 05:49:00,61.3,55.1,30.24,South,175,3.0,3.0,80,0.00,,,0.00,Wunderground v.1.15,2013-07-10 11:49:00,
2013-07-10 05:55:00,61.2,55.0,30.25,South,175,2.0,32.0,80,0.00,,,0.00,Wunderground v.1.15,2013-07-10 11:55:00,
2013-07-10 06:01:00,61.1,54.9,30.24,South,174,2.0,32.0,80,0.00,,,0.00,Wunderground v.1.15,2013-07-10 12:01:00,
2013-07-10 06:08:00,61.0,55.1,30.24,SSE,168,2.0,32.0,81,0.00,,,0.00,Wunderground v.1.15,2013-07-10 12:08:00,
2013-07-10 06:13:00,61.7,55.8,30.24,South,180,3.0,32.0,81,0.00,,,0.00,Wunderground v.1.15,2013-07-10 12:13:00,
2013-07-10 06:19:00,62.4,56.1,30.24,South,188,5.0,32.0,80,0.00,,,0.00,Wunderground v.1.15,2013-07-10 12:19:00,
2013-07-10 06:25:00,62.9,56.6,30.24,South,171,4.0,32.0,80,0.00,,,0.00,Wunderground v.1.15,2013-07-10 12:25:00,
2013-07-10 06:31:00,63.1,56.5,30.24,South,173,3.0,32.0,79,0.00,,,0.00,Wunderground v.1.15,2013-07-10 12:31:00,
2013-07-10 06:38:00,63.3,56.7,30.24,South,179,3.0,32.0,79,0.00,,,0.00,Wunderground v.1.15,2013-07-10 12:38:00,
2013-07-10 06:43:00,63.5,56.5,30.24,South,176,3.0,32.0,78,0.00,,,0.00,Wunderground v.1.15,2013-07-10 12:43:00,
2013-07-10 06:49:00,63.6,56.3,30.24,SSE,160,3.0,32.0,77,0.00,,,0.00,Wunderground v.1.15,2013-07-10 12:49:00,
2013-07-10 06:55:00,63.8,56.8,30.23,SSE,162,3.0,32.0,78,0.00,,,0.00,Wunderground v.1.15,2013-07-10 12:55:00,
2013-07-10 07:02:00,64.2,56.8,30.24,SSE,157,3.0,32.0,77,0.00,,,0.00,Wunderground v.1.15,2013-07-10 13:02:00,
2013-07-10 07:08:00,64.4,57.0,30.23,South,170,4.0,32.0,77,0.00,,,0.00,Wunderground v.1.15,2013-07-10 13:08:00,
2013-07-10 07:13:00,64.6,57.2,30.23,SSE,152,5.0,32.0,77,0.00,,,0.00,Wunderground v.1.15,2013-07-10 13:13:00,
2013-07-10 07:19:00,64.6,57.6,30.23,South,174,6.0,32.0,78,0.00,,,0.00,Wunderground v.1.15,2013-07-10 13:19:00,
2013-07-10 07:25:00,64.8,58.1,30.23,SE,146,6.0,32.0,79,0.00,,,0.00,Wunderground v.1.15,2013-07-10 13:25:00,
2013-07-10 07:31:00,65.3,58.3,30.23,SSE,164,5.0,32.0,78,0.00,,,0.00,Wunderground v.1.15,2013-07-10 13:31:00,
2013-07-10 07:37:00,65.6,58.6,30.23,South,170,5.0,32.0,78,0.00,,,0.00,Wunderground v.1.15,2013-07-10 13:37:00,
2013-07-10 07:44:00,66.0,58.9,30.23,SSE,162,6.0,32.0,78,0.00,,,0.00,Wunderground v.1.15,2013-07-10 13:44:00,
2013-07-10 07:49:00,66.5,59.1,30.23,South,174,6.0,32.0,77,0.00,,,0.00,Wunderground v.1.15,2013-07-10 13:49:00,
2013-07-10 07:55:00,67.2,59.0,30.23,SSE,150,8.0,32.0,75,0.00,,,0.00,Wunderground v.1.15,2013-07-10 13:55:00,
2013-07-10 08:01:00,67.6,59.0,30.24,SSE,168,8.0,32.0,74,0.00,,,0.00,Wunderground v.1.15,2013-07-10 14:01:00,
2013-07-10 08:07:00,67.6,59.0,30.23,SSE,154,8.0,32.0,74,0.00,,,0.00,Wunderground v.1.15,2013-07-10 14:07:00,
2013-07-10 08:14:00,67.3,58.7,30.23,South,179,8.0,32.0,74,0.00,,,0.00,Wunderground v.1.15,2013-07-10 14:14:00,
2013-07-10 08:20:00,67.1,58.9,30.23,SSE,150,7.0,7.0,75,0.00,,,0.00,Wunderground v.1.15,2013-07-10 14:20:00,
2013-07-10 08:25:00,67.4,59.2,30.23,SSE,166,7.0,32.0,75,0.00,,,0.00,Wunderground v.1.15,2013-07-10 14:25:00,
2013-07-10 08:31:00,67.3,59.1,30.22,SSE,167,8.0,9.0,75,0.00,,,0.00,Wunderground v.1.15,2013-07-10 14:31:00,
2013-07-10 08:37:00,66.5,58.7,30.22,South,171,8.0,32.0,76,0.00,,,0.00,Wunderground v.1.15,2013-07-10 14:37:00,
2013-07-10 08:43:00,65.9,58.5,30.23,South,189,7.0,32.0,77,0.00,,,0.00,Wunderground v.1.15,2013-07-10 14:43:00,
2013-07-10 08:50:00,65.6,58.6,30.23,South,191,7.0,32.0,78,0.00,,,0.00,Wunderground v.1.15,2013-07-10 14:50:00,
2013-07-10 17:21:00,87.7,62.4,30.02,South,172,6.0,6.0,43,0.00,,,0.11,Wunderground v.1.15,2013-07-10 23:21:00,
2013-07-10 17:28:00,88.0,62.0,30.02,South,176,5.0,7.0,42,0.00,,,0.11,Wunderground v.1.15,2013-07-10 23:28:00,
2013-07-10 17:34:00,87.8,61.9,30.01,SE,135,5.0,15.0,42,0.00,,,0.11,Wunderground v.1.15,2013-07-10 23:34:00,
2013-07-10 17:39:00,88.1,59.3,30.01,SE,140,5.0,15.0,38,0.00,,,0.11,Wunderground v.1.15,2013-07-10 23:39:00,
2013-07-10 17:45:00,88.4,58.8,30.00,SSE,148,5.0,15.0,37,0.00,,,0.11,Wunderground v.1.15,2013-07-10 23:45:00,
2013-07-10 17:51:00,88.8,59.9,30.00,SSE,157,3.0,15.0,38,0.00,,,0.11,Wunderground v.1.15,2013-07-10 23:51:00,
2013-07-10 17:57:00,88.8,57.6,30.00,SSE,166,5.0,15.0,35,0.00,,,0.11,Wunderground v.1.15,2013-07-10 23:57:00,
2013-07-10 18:04:00,88.6,58.2,30.00,South,176,8.0,15.0,36,0.00,,,0.11,Wunderground v.1.15,2013-07-11 00:04:00,
2013-07-10 18:10:00,88.4,56.5,30.01,SSE,153,8.0,8.0,34,0.00,,,0.11,Wunderground v.1.15,2013-07-11 00:10:00,
2013-07-10 18:15:00,88.3,52.0,30.00,South,174,7.0,15.0,29,0.00,,,0.11,Wunderground v.1.15,2013-07-11 00:15:00,
2013-07-10 18:21:00,88.4,52.1,30.01,South,175,6.0,15.0,29,0.00,,,0.11,Wunderground v.1.15,2013-07-11 00:21:00,
2013-07-10 18:27:00,88.3,54.7,30.01,South,179,6.0,15.0,32,0.00,,,0.11,Wunderground v.1.15,2013-07-11 00:27:00,
2013-07-10 18:34:00,87.6,54.1,30.01,South,172,8.0,15.0,32,0.00,,,0.11,Wunderground v.1.15,2013-07-11 00:34:00,
2013-07-10 18:40:00,87.2,55.4,30.02,South,185,8.0,15.0,34,0.00,,,0.11,Wunderground v.1.15,2013-07-11 00:40:00,
2013-07-10 18:45:00,86.9,55.2,30.02,South,183,8.0,15.0,34,0.00,,,0.11,Wunderground v.1.15,2013-07-11 00:45:00,
2013-07-10 18:51:00,86.9,55.2,30.02,South,189,6.0,15.0,34,0.00,,,0.11,Wunderground v.1.15,2013-07-11 00:51:00,
2013-07-10 18:57:00,87.0,56.0,30.02,South,172,4.0,15.0,35,0.00,,,0.11,Wunderground v.1.15,2013-07-11 00:57:00,
2013-07-10 19:03:00,87.0,56.0,30.02,South,172,2.0,15.0,35,0.00,,,0.11,Wunderground v.1.15,2013-07-11 01:03:00,
2013-07-10 19:09:00,86.9,56.7,30.02,South,172,2.0,2.0,36,0.00,,,0.11,Wunderground v.1.15,2013-07-11 01:09:00,
2013-07-10 19:16:00,86.8,57.4,30.02,SE,144,1.0,15.0,37,0.00,,,0.11,Wunderground v.1.15,2013-07-11 01:16:00,
2013-07-10 19:21:00,85.4,55.4,30.02,SE,143,4.0,15.0,36,0.00,,,0.11,Wunderground v.1.15,2013-07-11 01:21:00,
2013-07-10 19:27:00,83.6,56.0,30.01,South,170,6.0,15.0,39,0.00,,,0.11,Wunderground v.1.15,2013-07-11 01:27:00,
2013-07-10 19:33:00,81.9,55.9,30.01,SE,131,9.0,15.0,41,0.00,,,0.11,Wunderground v.1.15,2013-07-11 01:33:00,
2013-07-10 19:40:00,80.9,56.3,30.01,SSE,162,9.0,9.0,43,0.00,,,0.11,Wunderground v.1.15,2013-07-11 01:40:00,
2013-07-10 19:46:00,80.0,56.7,30.02,South,174,6.0,15.0,45,0.00,,,0.11,Wunderground v.1.15,2013-07-11 01:46:00,
2013-07-10 19:51:00,79.3,56.7,30.02,SSE,163,6.0,7.0,46,0.00,,,0.11,Wunderground v.1.15,2013-07-11 01:51:00,
2013-07-10 19:57:00,78.4,56.5,30.02,SSE,159,6.0,15.0,47,0.00,,,0.11,Wunderground v.1.15,2013-07-11 01:57:00,
2013-07-10 20:03:00,77.5,56.8,30.02,SSE,162,6.0,15.0,49,0.00,,,0.11,Wunderground v.1.15,2013-07-11 02:03:00,
2013-07-10 20:09:00,76.9,56.3,30.02,SSE,167,5.0,15.0,49,0.00,,,0.11,Wunderground v.1.15,2013-07-11 02:09:00,
2013-07-10 20:15:00,76.6,56.0,30.02,South,171,6.0,15.0,49,0.00,,,0.11,Wunderground v.1.15,2013-07-11 02:15:00,
2013-07-10 20:22:00,76.3,55.7,30.02,South,177,6.0,15.0,49,0.00,,,0.11,Wunderground v.1.15,2013-07-11 02:22:00,
2013-07-10 20:27:00,77.3,56.6,30.02,South,185,5.0,15.0,49,0.00,,,0.11,Wunderground v.1.15,2013-07-11 02:27:00,
2013-07-10 20:33:00,77.4,55.6,30.02,South,170,4.0,15.0,47,0.00,,,0.11,Wunderground v.1.15,2013-07-11 02:33:00,
2013-07-10 20:39:00,77.3,56.1,30.02,SSW,206,5.0,5.0,48,0.00,,,0.11,Wunderground v.1.15,2013-07-11 02:39:00,
2013-07-10 20:45:00,76.8,56.8,30.02,South,179,3.0,15.0,50,0.00,,,0.11,Wunderground v.1.15,2013-07-11 02:45:00,
2013-07-10 20:52:00,76.5,55.9,30.03,South,172,3.0,15.0,49,0.00,,,0.11,Wunderground v.1.15,2013-07-11 02:52:00,
2013-07-10 20:58:00,75.9,55.4,30.03,South,190,4.0,15.0,49,0.00,,,0.11,Wunderground v.1.15,2013-07-11 02:58:00,
2013-07-10 21:03:00,75.8,55.3,30.04,SSE,164,5.0,15.0,49,0.00,,,0.11,Wunderground v.1.15,2013-07-11 03:03:00,
2013-07-10 21:09:00,75.2,55.3,30.04,South,172,5.0,5.0,50,0.00,,,0.11,Wunderground v.1.15,2013-07-11 03:09:00,
2013-07-10 21:15:00,74.5,55.7,30.05,SSE,167,3.0,15.0,52,0.00,,,0.11,Wunderground v.1.15,2013-07-11 03:15:00,
2013-07-10 21:21:00,73.9,56.2,30.06,SSE,155,3.0,15.0,54,0.00,,,0.11,Wunderground v.1.15,2013-07-11 03:21:00,
2013-07-10 21:28:00,73.6,56.9,30.06,SE,140,5.0,15.0,56,0.00,,,0.11,Wunderground v.1.15,2013-07-11 03:28:00,
2013-07-10 21:33:00,73.3,55.6,30.07,SSE,154,5.0,15.0,54,0.00,,,0.11,Wunderground v.1.15,2013-07-11 03:33:00,
2013-07-10 21:39:00,73.2,55.6,30.06,South,176,5.0,15.0,54,0.00,,,0.11,Wunderground v.1.15,2013-07-11 03:39:00,
2013-07-10 21:45:00,73.4,55.7,30.07,South,170,5.0,15.0,54,0.00,,,0.11,Wunderground v.1.15,2013-07-11 03:45:00,
2013-07-10 21:51:00,73.2,55.6,30.07,South,170,5.0,15.0,54,0.00,,,0.11,Wunderground v.1.15,2013-07-11 03:51:00,
2013-07-10 21:57:00,72.8,55.7,30.06,SSE,168,6.0,15.0,55,0.00,,,0.11,Wunderground v.1.15,2013-07-11 03:57:00,
2013-07-10 22:02:00,72.6,56.0,30.06,SSE,164,6.0,15.0,56,0.00,,,0.11,Wunderground v.1.15,2013-07-11 04:02:00,
2013-07-10 22:04:00,72.5,55.9,30.06,South,174,7.0,15.0,56,0.00,,,0.11,Wunderground v.1.15,2013-07-11 04:04:00,
2013-07-10 22:07:00,72.3,55.7,30.06,SSE,152,7.0,15.0,56,0.00,,,0.11,Wunderground v.1.15,2013-07-11 04:07:00,
2013-07-10 22:11:00,72.1,55.5,30.07,SSE,156,7.0,15.0,56,0.00,,,0.11,Wunderground v.1.15,2013-07-11 04:11:00,
2013-07-10 22:17:00,71.5,55.0,30.06,SSE,159,7.0,15.0,56,0.00,,,0.11,Wunderground v.1.15,2013-07-11 04:17:00,
2013-07-10 22:19:00,71.3,55.3,30.07,SSE,164,7.0,7.0,57,0.00,,,0.11,Wunderground v.1.15,2013-07-11 04:19:00,
2013-07-10 22:25:00,71.0,55.0,30.07,SSE,155,6.0,15.0,57,0.00,,,0.11,Wunderground v.1.15,2013-07-11 04:25:00,
2013-07-10 22:31:00,70.2,54.7,30.07,SSE,152,7.0,15.0,58,0.00,,,0.11,Wunderground v.1.15,2013-07-11 04:31:00,
2013-07-10 22:38:00,70.8,55.3,30.07,SSE,166,7.0,15.0,58,0.00,,,0.11,Wunderground v.1.15,2013-07-11 04:38:00,
2013-07-10 22:43:00,71.7,55.7,30.07,SSE,166,7.0,15.0,57,0.00,,,0.11,Wunderground v.1.15,2013-07-11 04:43:00,
2013-07-10 22:49:00,72.7,56.6,30.07,SSE,161,8.0,15.0,57,0.00,,,0.11,Wunderground v.1.15,2013-07-11 04:49:00,
2013-07-10 22:55:00,72.6,57.0,30.07,South,170,8.0,15.0,58,0.00,,,0.11,Wunderground v.1.15,2013-07-11 04:55:00,
2013-07-10 23:01:00,72.2,57.1,30.07,South,179,6.0,15.0,59,0.00,,,0.11,Wunderground v.1.15,2013-07-11 05:01:00,
2013-07-10 23:08:00,72.1,57.4,30.06,South,170,6.0,15.0,60,0.00,,,0.11,Wunderground v.1.15,2013-07-11 05:08:00,
2013-07-10 23:14:00,71.9,57.7,30.06,South,184,6.0,15.0,61,0.00,,,0.11,Wunderground v.1.15,2013-07-11 05:14:00,
2013-07-10 23:19:00,71.7,58.0,30.06,South,177,6.0,6.0,62,0.00,,,0.11,Wunderground v.1.15,2013-07-11 05:19:00,
2013-07-10 23:25:00,71.4,58.1,30.06,SSE,162,6.0,15.0,63,0.00,,,0.11,Wunderground v.1.15,2013-07-11 05:25:00,
2013-07-10 23:31:00,70.1,57.8,30.06,SSE,162,6.0,15.0,65,0.00,,,0.11,Wunderground v.1.15,2013-07-11 05:31:00,
2013-07-10 23:37:00,69.9,58.0,30.06,SSE,161,6.0,15.0,66,0.00,,,0.11,Wunderground v.1.15,2013-07-11 05:37:00,
2013-07-10 23:44:00,70.1,58.2,30.06,SSE,162,5.0,15.0,66,0.00,,,0.11,Wunderground v.1.15,2013-07-11 05:44:00,
2013-07-10 23:49:00,70.4,58.5,30.06,SSE,150,5.0,15.0,66,0.00,,,0.11,Wunderground v.1.15,2013-07-11 05:49:00,
2013-07-10 23:55:00,70.4,58.1,30.06,SSE,165,4.0,15.0,65,0.00,,,0.11,Wunderground v.1.15,2013-07-11 05:55:00,